East Brookfield, MA (01515)

7:34 AM EDT on April 25, 2017 (GMT -0400)
East Brookfield | | Change Station

Elev 629 ft 42.23 °N, 72.07 °W | Updated 3 minutes ago

Rain
Rain
48.2 °F
Feels Like 48 °F
N
2.5
Wind Variable Wind from SW
Gusts 7.5 mph

Today
High -- | Low -- °F
--% Chance of Precip.
Yesterday
High -- | Low -- °F
Precip. -- in
Pressure 30.23 in
Visibility 10.0 miles
Clouds Overcast 400 ft
Windchill 48 °F
Dew Point 44 °F
Humidity 84%
Rainfall 0.00 in
Snow Depth Not available.
5:51 AM 7:41 PM
Waning Crescent, 2% visible
SPECI KORH 251125Z 05008KT 10SM -RA OVC004 07/06 A3023 RMK AO2 P0000 T00720061
Pressure 30.23 in
Visibility 10.0 miles
Clouds Overcast 400 ft
Windchill 48 °F
Dew Point 44 °F
Humidity 84%
Rainfall 0.00 in
Snow Depth Not available.
5:51 AM 7:41 PM
Waning Crescent, 2% visible
SPECI KORH 251125Z 05008KT 10SM -RA OVC004 07/06 A3023 RMK AO2 P0000 T00720061

Get Severe Weather Alerts

Thanks for signing up!

Be on the lookout for a verification email in your inbox.

You'll start receiving the daily forecast at 8 AM.

×

10-Day Weather Forecast

Almanac

Astronomy

Apr. 25, 2017 Rise Set
Actual Time
Civil Twilight
Nautical Twilight
Astronomical Twilight
Moon
Length of Visible Light
Length of Day
Tomorrow will be .
, % of the Moon is Illuminated

Today's Extremes

State Highs State Lows

Community

WunderPhotos

WunderBlog® & News

Nearby

Air Quality

  Air Quality AQ Index Pollutant
Not available.

Snow Depth

Station Depth Elevation

Earthquake Activity

City Distance Mag. Time & Date
Minimum magnitude displayed is 2.5.

Coastal Water Temperatures

Place Temperature

Stations

Nearby Weather Stations

Station Location Temp. Windchill Dew Point Humidity Wind Precip. Elev Updated Type
                   

Watches & Warnings

There are currently no watches in effect.